Latest Weather Observations for Neptune Island

IDS60801

Issued at 4:01 am CST Friday 29 May 2015 (issued every 30 minutes, with the page automatically refreshed every 10 minutes)

About weather observations | Map of weather stations | Latest weather observations for SA | Other Formats
Station Details ID: 018115 Name: NEPTUNE ISLAND Lat: -35.34 Lon: 136.12 Height: 32.0 m
Data from the previous 72 hours. | See also: Recent months at Neptune Island
Date/Time
CST
Temp
°C
App
Temp
°C
Dew
Point
Rel
Hum
%
Delta-T
°C
Wind Press
QNH
hPa
Press
MSL
hPa
Rain
since 9 am
mm
Dir
 
Spd
km/h
Gust
km/h
Spd
kts
Gust
kts
29/04:00am 14.0 7.3 7.5 65 3.2 WSW 32 43 17 23 1021.6 1021.5 1.6
29/03:30am 14.2 8.1 8.2 67 3.0 WSW 30 39 16 21 1021.4 1021.3 1.6
29/03:00am 14.2 8.0 7.7 65 3.2 WSW 30 35 16 19 1021.2 1021.1 1.6
29/02:30am 14.3 7.7 7.8 65 3.2 WSW 32 41 17 22 1021.1 1021.0 1.6
29/02:00am 14.4 8.0 8.6 68 2.9 WSW 32 37 17 20 1021.1 1021.0 1.6
29/01:30am 14.3 8.6 8.5 68 2.9 WSW 28 35 15 19 1021.1 1021.0 1.6
29/01:00am 14.3 8.3 8.5 68 2.9 WSW 30 39 16 21 1021.2 1021.1 1.6
29/12:30am 14.2 7.5 7.5 64 3.3 WSW 32 37 17 20 1021.2 1021.1 1.6
29/12:00am 14.4 7.9 9.0 70 2.7 WSW 33 41 18 22 1021.1 1021.0 1.6
 
Date/Time
CST
Temp
°C
App
Temp
°C
Dew
Point
Rel
Hum
%
Delta-T
°C
Wind Press
QNH
hPa
Press
MSL
hPa
Rain
since 9 am
mm
Dir
 
Spd
km/h
Gust
km/h
Spd
kts
Gust
kts
28/11:30pm 14.3 7.8 8.0 66 3.1 WSW 32 39 17 21 1021.1 1021.0 1.6
28/11:00pm 14.4 7.1 7.0 61 3.6 WSW 35 44 19 24 1021.1 1021.0 1.6
28/10:30pm 14.4 7.6 7.5 63 3.4 WSW 33 39 18 21 1021.4 1021.3 1.6
28/10:00pm 14.4 8.0 9.4 72 2.6 WSW 33 41 18 22 1021.1 1021.0 1.6
28/09:30pm 14.5 8.5 8.5 67 3.0 WSW 30 35 16 19 1020.9 1020.8 1.6
28/09:00pm 14.7 7.6 8.0 64 3.3 WSW 35 43 19 23 1020.4 1020.3 1.6
28/08:30pm 14.5 7.5 8.5 67 3.0 WSW 35 46 19 25 1020.2 1020.1 1.6
28/08:00pm 14.6 7.1 7.9 64 3.3 WSW 37 46 20 25 1020.0 1019.9 1.6
28/07:30pm 14.5 6.9 8.9 69 2.8 WSW 39 46 21 25 1019.6 1019.5 1.6
28/07:00pm 14.8 7.9 9.0 68 3.0 W 35 44 19 24 1019.3 1019.2 1.6
28/06:30pm 14.7 8.3 9.5 71 2.7 W 33 39 18 21 1019.3 1019.2 1.6
28/06:00pm 14.6 7.8 9.2 70 2.8 WSW 35 44 19 24 1018.8 1018.7 1.6
28/05:30pm 14.9 7.9 9.9 72 2.6 WSW 37 44 20 24 1018.5 1018.4 1.6
28/05:00pm 14.9 6.5 9.1 68 3.0 WSW 43 50 23 27 1018.1 1018.0 1.6
28/04:30pm 15.1 7.0 9.9 71 2.7 WSW 43 52 23 28 1017.8 1017.7 1.6
28/04:00pm 15.2 8.9 11.0 76 2.2 WSW 35 43 19 23 1017.6 1017.5 1.6
28/03:30pm 15.3 8.0 11.5 78 2.0 WSW 41 48 22 26 1017.4 1017.3 1.6
28/03:00pm 15.0 7.2 11.2 78 2.0 WSW 43 50 23 27 1017.1 1017.0 1.6
28/02:30pm 14.8 7.3 12.7 87 1.2 WSW 44 54 24 29 1016.9 1016.8 1.6
28/02:00pm 14.4 6.4 12.3 87 1.1 WSW 46 56 25 30 1016.7 1016.6 1.6
28/01:30pm 14.8 7.9 12.7 87 1.2 WSW 41 48 22 26 1016.9 1016.8 1.6
28/01:00pm 14.9 8.0 12.9 88 1.1 W 41 59 22 32 1016.7 1016.6 1.0
28/12:57pm 15.5 9.3 12.8 84 1.5 W 37 57 20 31 1016.7 1016.6 0.2
28/12:30pm 16.3 9.0 13.4 83 1.6 W 44 54 24 29 1016.8 1016.7 0.2
28/12:00pm 16.5 9.0 12.7 78 2.1 W 44 57 24 31 1016.9 1016.8 0.0
28/11:30am 16.5 11.1 13.8 84 1.5 W 35 41 19 22 1017.5 1017.4 0.0
28/11:00am 15.6 8.2 12.4 81 1.8 WNW 43 56 23 30 1017.4 1017.3 0.0
28/10:41am 16.6 7.9 12.6 77 2.2 WNW 50 72 27 39 1017.0 1016.9 0.0
28/10:30am 17.1 10.3 13.2 78 2.2 WNW 41 48 22 26 1017.3 1017.2 0.0
28/10:00am 16.6 9.6 12.6 77 2.2 WNW 41 50 22 27 1017.3 1017.2 0.0
28/09:30am 16.3 8.9 12.5 78 2.1 WNW 43 52 23 28 1017.2 1017.1 0.0
28/09:00am 16.1 8.6 12.8 81 1.8 WNW 44 52 24 28 1016.9 1016.8 2.2
28/08:30am 15.9 9.6 13.4 85 1.4 WNW 39 48 21 26 1016.9 1016.8 2.2
28/08:00am 15.7 8.4 12.8 83 1.6 WNW 43 50 23 27 1016.7 1016.6 2.2
28/07:30am 15.2 8.6 12.7 85 1.4 WNW 39 48 21 26 1016.3 1016.2 2.2
28/07:00am 14.5 7.2 12.7 89 1.0 WNW 43 61 23 33 1016.2 1016.1 2.2
28/06:50am 14.6 8.0 12.6 88 1.1 WNW 39 59 21 32 1016.2 1016.1 1.8
28/06:30am 14.6 8.1 13.0 90 0.9 NW 39 50 21 27 1016.0 1015.9 1.6
28/06:28am 14.4 7.7 12.4 88 1.1 WNW 39 50 21 27 1016.0 1015.9 1.6
28/06:09am 15.8 8.9 12.7 82 1.7 WNW 41 50 22 27 1015.8 1015.7 0.2
28/06:00am 16.3 8.7 11.9 75 2.4 WNW 43 50 23 27 1015.8 1015.7 0.2
28/05:30am 16.2 9.1 12.2 77 2.2 WNW 41 50 22 27 1015.7 1015.6 0.2
28/05:00am 16.0 9.0 11.4 74 2.5 NW 39 46 21 25 1015.6 1015.5 0.2
28/04:30am 15.9 9.4 11.7 76 2.3 WNW 37 46 20 25 1015.5 1015.4 0.2
28/04:00am 15.9 10.4 12.3 79 2.0 WNW 33 41 18 22 1015.7 1015.6 0.2
28/03:30am 15.7 8.4 11.5 76 2.3 WNW 41 48 22 26 1015.8 1015.7 0.2
28/03:00am 15.5 9.2 12.3 81 1.7 WNW 37 46 20 25 1016.1 1016.0 0.2
28/02:30am 15.6 8.6 13.6 88 1.1 W 43 46 23 25 1016.4 1016.3 0.2
28/02:00am 16.1 10.4 11.9 76 2.3 WNW 33 48 18 26 1016.1 1016.0 0.2
28/01:30am 16.3 9.5 12.1 76 2.3 WNW 39 46 21 25 1016.2 1016.1 0.2
28/01:00am 16.3 9.3 12.5 78 2.1 WNW 41 46 22 25 1016.4 1016.3 0.2
28/12:30am 16.2 9.6 12.7 80 1.9 WNW 39 48 21 26 1016.3 1016.2 0.2
28/12:00am 16.0 10.0 13.3 84 1.5 NW 37 44 20 24 1016.5 1016.4 0.2
 
Date/Time
CST
Temp
°C
App
Temp
°C
Dew
Point
Rel
Hum
%
Delta-T
°C
Wind Press
QNH
hPa
Press
MSL
hPa
Rain
since 9 am
mm
Dir
 
Spd
km/h
Gust
km/h
Spd
kts
Gust
kts
27/11:30pm 16.0 11.2 14.7 92 0.7 NW 33 39 18 21 1016.6 1016.5 0.2
27/11:00pm 16.0 11.2 14.5 91 0.9 NNW 33 37 18 20 1016.7 1016.6 0.2
27/10:30pm 16.0 10.8 14.5 91 0.9 NW 35 39 19 21 1017.0 1016.9 0.2
27/10:00pm 16.0 10.8 14.5 91 0.9 NW 35 39 19 21 1017.2 1017.1 0.2
27/09:30pm 16.0 11.2 14.5 91 0.9 NW 33 39 18 21 1017.2 1017.1 0.2
27/09:00pm 16.0 11.1 14.4 90 0.9 NNW 33 39 18 21 1017.1 1017.0 0.2
27/08:30pm 16.0 11.2 14.5 91 0.9 NNW 33 39 18 21 1017.0 1016.9 0.2
27/08:00pm 16.1 11.6 14.8 92 0.7 NW 32 37 17 20 1017.1 1017.0 0.2
27/07:30pm 16.1 12.2 14.5 90 0.9 NW 28 32 15 17 1017.0 1016.9 0.2
27/07:00pm 16.3 12.8 14.5 89 1.0 NW 26 32 14 17 1017.0 1016.9 0.2
27/06:30pm 16.0 12.2 13.7 86 1.3 NW 26 32 14 17 1016.9 1016.8 0.2
27/06:00pm 15.9 11.9 14.1 89 1.0 NW 28 33 15 18 1016.9 1016.8 0.2
27/05:30pm 16.3 11.4 13.6 84 1.5 NW 32 39 17 21 1016.8 1016.7 0.2
27/05:00pm 16.8 12.5 13.3 80 2.0 NW 28 32 15 17 1016.8 1016.7 0.2
27/04:30pm 16.9 12.7 13.4 80 2.0 NW 28 35 15 19 1016.9 1016.8 0.2
27/04:00pm 17.2 12.5 13.3 78 2.2 WNW 30 35 16 19 1016.9 1016.8 0.2
27/03:30pm 17.1 13.3 13.6 80 2.0 WNW 26 30 14 16 1017.0 1016.9 0.2
27/03:00pm 17.6 14.0 14.1 80 2.0 WNW 26 30 14 16 1017.0 1016.9 0.2
27/02:30pm 17.5 13.5 14.2 81 1.9 WNW 28 33 15 18 1017.0 1016.9 0.2
27/02:00pm 17.5 14.2 14.0 80 2.0 WNW 24 30 13 16 1017.0 1016.9 0.2
27/01:30pm 18.0 14.2 14.7 81 1.9 WNW 28 32 15 17 1017.2 1017.1 0.2
27/01:00pm 17.4 14.5 15.0 86 1.4 W 24 30 13 16 1017.5 1017.4 0.2
27/12:30pm 16.9 14.2 14.7 87 1.3 W 22 24 12 13 1017.9 1017.8 0.2
27/12:00pm 17.0 14.5 15.2 89 1.0 W 22 26 12 14 1018.4 1018.3 0.2
27/11:30am 16.9 12.5 15.6 92 0.8 NW 33 41 18 22 1018.5 1018.4 0.2
27/11:00am 16.3 10.5 15.0 92 0.8 NW 39 44 21 24 1018.8 1018.7 0.0
27/10:30am 16.5 10.9 15.5 94 0.6 NW 39 50 21 27 1018.8 1018.7 0.0
27/10:00am 16.3 11.4 15.2 93 0.6 NW 35 43 19 23 1018.6 1018.5 0.0
27/09:30am 16.8 11.6 15.5 92 0.8 NW 37 43 20 23 1018.6 1018.5 0.0
27/09:00am 16.6 11.3 15.3 92 0.8 NW 37 43 20 23 1018.3 1018.2 0.0
27/08:30am 16.1 10.7 15.0 93 0.6 NW 37 44 20 24 1018.3 1018.2 0.0
27/08:00am 16.0 9.8 15.0 94 0.6 NW 41 46 22 25 1018.0 1017.9 0.0
27/07:30am 16.1 11.1 15.1 94 0.6 NNW 35 44 19 24 1017.9 1017.8 0.0
27/07:00am 16.2 10.5 15.1 93 0.6 NW 39 43 21 23 1017.8 1017.7 0.0
27/06:30am 16.2 10.4 14.9 92 0.7 NW 39 46 21 25 1017.7 1017.6 0.0
27/06:00am 16.2 10.4 14.9 92 0.7 NW 39 44 21 24 1017.5 1017.4 0.0
27/05:30am 16.1 10.2 14.8 92 0.7 NW 39 46 21 25 1017.3 1017.2 0.0
27/05:00am 16.0 10.1 14.7 92 0.7 NW 39 46 21 25 1017.5 1017.4 0.0
27/04:30am 16.2 10.4 14.9 92 0.7 NW 39 46 21 25 1017.7 1017.6 0.0
27/04:00am 16.1 9.9 14.8 92 0.7 NW 41 48 22 26 1017.5 1017.4 0.0
27/03:30am 16.0 11.0 15.0 94 0.6 NW 35 46 19 25 1017.7 1017.6 0.0
27/03:00am 16.0 11.4 15.0 94 0.6 NW 33 41 18 22 1017.8 1017.7 0.0
27/02:30am 16.1 11.5 15.0 93 0.6 NW 33 39 18 21 1018.0 1017.9 0.0
27/02:00am 16.2 11.5 14.9 92 0.7 NW 33 39 18 21 1018.4 1018.3 0.0
27/01:30am 16.3 11.7 15.0 92 0.7 NW 33 43 18 23 1018.4 1018.3 0.0
27/01:00am 16.2 11.0 14.6 90 0.9 NW 35 43 19 23 1018.6 1018.5 0.0
27/12:30am 16.2 11.5 14.4 89 1.0 NW 32 41 17 22 1018.9 1018.8 0.0
27/12:00am 16.0 10.9 13.7 86 1.3 NW 33 39 18 21 1019.1 1019.0 0.0
 
Date/Time
CST
Temp
°C
App
Temp
°C
Dew
Point
Rel
Hum
%
Delta-T
°C
Wind Press
QNH
hPa
Press
MSL
hPa
Rain
since 9 am
mm
Dir
 
Spd
km/h
Gust
km/h
Spd
kts
Gust
kts
26/11:30pm 16.0 10.7 13.1 83 1.6 NW 33 41 18 22 1019.2 1019.1 0.0
26/11:00pm 16.1 10.9 12.8 81 1.8 NW 32 37 17 20 1019.3 1019.2 0.0
26/10:30pm 16.0 10.9 12.0 77 2.2 NW 30 35 16 19 1019.4 1019.3 0.0
26/10:00pm 15.6 11.7 12.0 79 2.0 N 24 28 13 15 1019.3 1019.2 0.0
26/09:30pm 15.7 12.1 11.9 78 2.1 N 22 28 12 15 1019.3 1019.2 0.0
26/09:00pm 15.8 11.9 12.2 79 2.0 N 24 28 13 15 1019.5 1019.4 0.0
26/08:30pm 16.0 12.5 12.2 78 2.1 N 22 28 12 15 1019.8 1019.7 0.0
26/08:00pm 15.7 12.0 11.5 76 2.3 N 22 28 12 15 1019.8 1019.7 0.0
26/07:30pm 15.8 12.2 12.0 78 2.1 N 22 26 12 14 1019.8 1019.7 0.0
26/07:00pm 16.2 11.7 11.4 73 2.6 NNW 26 30 14 16 1020.1 1020.0 0.0
26/06:30pm 16.4 11.9 12.6 78 2.1 NNW 28 35 15 19 1020.0 1019.9 0.0
26/06:00pm 16.4 13.3 13.5 83 1.6 N 22 28 12 15 1020.0 1019.9 0.0
26/05:30pm 16.3 13.7 13.8 85 1.4 NNE 20 24 11 13 1019.7 1019.6 0.0
26/05:00pm 16.3 14.4 13.0 81 1.8 N 15 17 8 9 1019.9 1019.8 0.0
26/04:30pm 16.7 14.4 13.0 79 2.1 N 17 19 9 10 1020.0 1019.9 0.0
26/04:00pm 17.6 15.4 13.3 76 2.4 NNE 17 20 9 11 1019.8 1019.7 0.0
26/03:30pm 17.0 14.8 13.3 79 2.1 NNE 17 19 9 10 1019.9 1019.8 0.0
26/03:00pm 17.2 15.3 12.9 76 2.4 NE 15 17 8 9 1019.9 1019.8 0.0
26/02:30pm 17.6 15.9 13.5 77 2.3 NE 15 17 8 9 1020.0 1019.9 0.0
26/02:00pm 17.9 16.2 13.6 76 2.4 NNE 15 19 8 10 1020.3 1020.2 0.0
26/01:30pm 17.2 15.1 13.5 79 2.1 NNE 17 20 9 11 1020.8 1020.7 0.0
26/01:00pm 17.7 16.2 13.2 75 2.5 NE 13 17 7 9 1021.1 1021.0 0.0
26/12:30pm 17.4 16.2 12.9 75 2.5 NE 11 15 6 8 1021.4 1021.3 0.0
26/12:00pm 17.4 16.9 12.7 74 2.6 NE 7 11 4 6 1022.1 1022.0 0.0
26/11:30am 18.1 16.4 13.6 75 2.5 NNE 15 17 8 9 1022.5 1022.4 0.0
26/11:00am 17.1 14.5 13.2 78 2.2 N 19 22 10 12 1023.1 1023.0 0.0
26/10:30am 17.2 14.8 13.7 80 2.0 N 19 20 10 11 1023.4 1023.3 0.0
26/10:00am 16.1 16.3 13.0 82 1.7 NNE 4 11 2 6 1023.6 1023.5 0.0
26/09:30am 15.9 15.5 13.0 83 1.6 N 7 11 4 6 1023.7 1023.6 0.0
26/09:00am 15.4 14.1 12.5 83 1.6 NNW 11 13 6 7 1023.9 1023.8 0.2
26/08:30am 16.4 13.7 11.8 74 2.5 NNW 17 22 9 12 1024.0 1023.9 0.0
26/08:00am 16.0 12.9 11.6 75 2.4 N 19 22 10 12 1023.9 1023.8 0.0
26/07:30am 15.8 12.6 11.4 75 2.4 N 19 20 10 11 1023.7 1023.6 0.0
26/07:00am 15.7 12.7 12.1 79 2.0 N 19 20 10 11 1023.8 1023.7 0.0
26/06:30am 15.8 12.8 12.5 81 1.8 NNE 20 22 11 12 1023.5 1023.4 0.0
26/06:00am 15.8 12.8 12.4 80 1.9 NNE 20 24 11 13 1023.4 1023.3 0.0
26/05:30am 15.7 12.7 11.9 78 2.1 NE 19 20 10 11 1023.5 1023.4 0.0
26/05:00am 15.6 12.6 12.0 79 2.0 NNE 19 20 10 11 1023.6 1023.5 0.0
26/04:30am 15.4 12.5 12.2 81 1.7 NNE 19 22 10 12 1023.7 1023.6 0.0

Other Formats:

Comma delimited format used in spreadsheet applications
http://www.bom.gov.au/fwo/IDS60801/IDS60801.94804.axf

JavaScript Object Notation format (JSON) in row-major order
http://www.bom.gov.au/fwo/IDS60801/IDS60801.94804.json